sensor_id;sensor_type;location;lat;lon;timestamp;pressure;altitude;pressure_sealevel;temperature;humidity
30935;BME280;51033;42.648;23.292;2023-12-28T00:01:20;94892.09;;;5.45;49.33
30935;BME280;51033;42.648;23.292;2023-12-28T00:03:46;94900.59;;;5.52;49.42
30935;BME280;51033;42.648;23.292;2023-12-28T00:06:11;94901.91;;;5.55;49.23
30935;BME280;51033;42.648;23.292;2023-12-28T00:08:36;94893.09;;;5.39;49.09
30935;BME280;51033;42.648;23.292;2023-12-28T00:11:02;94905.06;;;5.52;48.90
30935;BME280;51033;42.648;23.292;2023-12-28T00:13:28;94885.50;;;5.43;49.16
30935;BME280;51033;42.648;23.292;2023-12-28T00:15:53;94891.28;;;5.45;48.94
30935;BME280;51033;42.648;23.292;2023-12-28T00:18:18;94892.09;;;5.45;49.15
30935;BME280;51033;42.648;23.292;2023-12-28T00:20:44;94899.44;;;5.43;49.14
30935;BME280;51033;42.648;23.292;2023-12-28T00:23:09;94926.13;;;5.47;49.19
30935;BME280;51033;42.648;23.292;2023-12-28T00:25:34;94908.06;;;5.29;49.41
30935;BME280;51033;42.648;23.292;2023-12-28T00:28:00;94906.44;;;5.23;49.50
30935;BME280;51033;42.648;23.292;2023-12-28T00:30:25;94916.28;;;5.32;49.77
30935;BME280;51033;42.648;23.292;2023-12-28T00:32:51;94919.19;;;5.36;49.52
30935;BME280;51033;42.648;23.292;2023-12-28T00:35:16;94895.63;;;5.24;49.59
30935;BME280;51033;42.648;23.292;2023-12-28T00:37:41;94915.56;;;5.42;49.58
30935;BME280;51033;42.648;23.292;2023-12-28T00:40:07;94913.69;;;5.37;49.47
30935;BME280;51033;42.648;23.292;2023-12-28T00:42:33;94927.34;;;5.34;49.38
30935;BME280;51033;42.648;23.292;2023-12-28T00:44:59;94920.69;;;5.22;49.91
30935;BME280;51033;42.648;23.292;2023-12-28T00:47:24;94906.75;;;4.99;50.12
30935;BME280;51033;42.648;23.292;2023-12-28T00:49:50;94937.25;;;5.17;50.51
30935;BME280;51033;42.648;23.292;2023-12-28T00:52:15;94935.47;;;5.23;50.36
30935;BME280;51033;42.648;23.292;2023-12-28T00:54:41;94943.91;;;5.25;50.17
30935;BME280;51033;42.648;23.292;2023-12-28T00:57:06;94946.00;;;5.23;49.95
30935;BME280;51033;42.648;23.292;2023-12-28T00:59:31;94939.84;;;5.12;49.92
30935;BME280;51033;42.648;23.292;2023-12-28T01:01:57;94933.81;;;5.17;50.17
30935;BME280;51033;42.648;23.292;2023-12-28T01:04:22;94930.16;;;5.18;50.36
30935;BME280;51033;42.648;23.292;2023-12-28T01:06:52;94940.31;;;5.36;50.30
30935;BME280;51033;42.648;23.292;2023-12-28T01:09:18;94938.75;;;5.40;50.35
30935;BME280;51033;42.648;23.292;2023-12-28T01:11:44;94935.53;;;5.33;50.28
30935;BME280;51033;42.648;23.292;2023-12-28T01:14:10;94934.75;;;5.32;50.25
30935;BME280;51033;42.648;23.292;2023-12-28T01:16:36;94939.78;;;5.39;50.11
30935;BME280;51033;42.648;23.292;2023-12-28T01:19:05;94935.03;;;5.36;50.36
30935;BME280;51033;42.648;23.292;2023-12-28T01:21:30;94940.06;;;5.37;50.38
30935;BME280;51033;42.648;23.292;2023-12-28T01:23:55;94942.72;;;5.42;50.30
30935;BME280;51033;42.648;23.292;2023-12-28T01:26:23;94936.34;;;5.33;50.28
30935;BME280;51033;42.648;23.292;2023-12-28T01:28:49;94920.34;;;5.13;50.22
30935;BME280;51033;42.648;23.292;2023-12-28T01:31:14;94939.13;;;5.22;50.50
30935;BME280;51033;42.648;23.292;2023-12-28T01:33:40;94922.28;;;5.23;50.50
30935;BME280;51033;42.648;23.292;2023-12-28T01:36:18;94936.03;;;5.30;50.59
30935;BME280;51033;42.648;23.292;2023-12-28T01:38:45;94925.00;;;5.33;50.18
30935;BME280;51033;42.648;23.292;2023-12-28T01:41:14;94922.06;;;5.34;49.51
30935;BME280;51033;42.648;23.292;2023-12-28T01:43:41;94910.16;;;5.27;49.54
30935;BME280;51033;42.648;23.292;2023-12-28T01:46:10;94890.31;;;5.19;49.74
30935;BME280;51033;42.648;23.292;2023-12-28T01:48:36;94912.59;;;5.33;50.00
30935;BME280;51033;42.648;23.292;2023-12-28T01:51:02;94927.59;;;5.28;50.02
30935;BME280;51033;42.648;23.292;2023-12-28T01:53:28;94912.47;;;5.18;50.06
30935;BME280;51033;42.648;23.292;2023-12-28T01:55:54;94909.81;;;5.13;50.26
30935;BME280;51033;42.648;23.292;2023-12-28T01:58:20;94923.03;;;5.18;49.92
30935;BME280;51033;42.648;23.292;2023-12-28T02:00:46;94903.13;;;5.05;49.82
30935;BME280;51033;42.648;23.292;2023-12-28T02:03:12;94915.06;;;5.13;49.76
30935;BME280;51033;42.648;23.292;2023-12-28T02:05:38;94906.72;;;4.94;50.05
30935;BME280;51033;42.648;23.292;2023-12-28T02:08:04;94925.72;;;4.96;50.52
30935;BME280;51033;42.648;23.292;2023-12-28T02:10:30;94917.28;;;4.94;50.61
30935;BME280;51033;42.648;23.292;2023-12-28T02:12:56;94918.88;;;4.95;50.81
30935;BME280;51033;42.648;23.292;2023-12-28T02:15:21;94920.97;;;4.93;51.09
30935;BME280;51033;42.648;23.292;2023-12-28T02:17:55;94912.47;;;4.86;51.31
30935;BME280;51033;42.648;23.292;2023-12-28T02:20:31;94926.25;;;4.93;51.45
30935;BME280;51033;42.648;23.292;2023-12-28T02:22:57;94912.22;;;4.88;51.37
30935;BME280;51033;42.648;23.292;2023-12-28T02:25:23;94914.63;;;4.89;51.20
30935;BME280;51033;42.648;23.292;2023-12-28T02:27:49;94911.94;;;4.84;51.15
30935;BME280;51033;42.648;23.292;2023-12-28T02:30:20;94910.34;;;4.83;50.99
30935;BME280;51033;42.648;23.292;2023-12-28T02:35:39;94905.50;;;4.75;51.14
30935;BME280;51033;42.648;23.292;2023-12-28T02:38:10;94905.91;;;4.62;51.15
30935;BME280;51033;42.648;23.292;2023-12-28T02:40:41;94921.50;;;4.63;51.49
30935;BME280;51033;42.648;23.292;2023-12-28T02:43:09;94926.00;;;4.68;51.47
30935;BME280;51033;42.648;23.292;2023-12-28T02:45:36;94907.16;;;4.54;51.76
30935;BME280;51033;42.648;23.292;2023-12-28T02:48:02;94927.44;;;4.54;52.32
30935;BME280;51033;42.648;23.292;2023-12-28T02:50:28;94921.16;;;4.55;52.30
30935;BME280;51033;42.648;23.292;2023-12-28T02:52:56;94910.03;;;4.53;52.44
30935;BME280;51033;42.648;23.292;2023-12-28T02:55:21;94906.31;;;4.49;52.24
30935;BME280;51033;42.648;23.292;2023-12-28T02:57:46;94888.56;;;4.39;52.28
30935;BME280;51033;42.648;23.292;2023-12-28T03:00:12;94896.25;;;4.46;51.92
30935;BME280;51033;42.648;23.292;2023-12-28T03:02:38;94907.97;;;4.55;51.66
30935;BME280;51033;42.648;23.292;2023-12-28T03:05:07;94907.34;;;4.48;51.77
30935;BME280;51033;42.648;23.292;2023-12-28T03:07:33;94873.47;;;4.30;51.94
30935;BME280;51033;42.648;23.292;2023-12-28T03:09:59;94892.75;;;4.35;51.66
30935;BME280;51033;42.648;23.292;2023-12-28T03:12:24;94882.06;;;4.25;51.95
30935;BME280;51033;42.648;23.292;2023-12-28T03:14:50;94874.31;;;4.13;52.35
30935;BME280;51033;42.648;23.292;2023-12-28T03:17:18;94856.91;;;4.12;52.38
30935;BME280;51033;42.648;23.292;2023-12-28T03:19:44;94895.31;;;4.30;52.45
30935;BME280;51033;42.648;23.292;2023-12-28T03:22:09;94883.84;;;4.19;52.44
30935;BME280;51033;42.648;23.292;2023-12-28T03:24:36;94880.59;;;4.12;52.63
30935;BME280;51033;42.648;23.292;2023-12-28T03:27:02;94882.06;;;4.25;52.29
30935;BME280;51033;42.648;23.292;2023-12-28T03:29:28;94898.78;;;4.36;52.18
30935;BME280;51033;42.648;23.292;2023-12-28T03:31:54;94880.72;;;4.22;52.48
30935;BME280;51033;42.648;23.292;2023-12-28T03:34:19;94886.03;;;4.27;52.47
30935;BME280;51033;42.648;23.292;2023-12-28T03:36:44;94882.25;;;4.18;52.74
30935;BME280;51033;42.648;23.292;2023-12-28T03:39:10;94879.44;;;4.03;52.77
30935;BME280;51033;42.648;23.292;2023-12-28T03:41:35;94915.91;;;4.16;52.58
30935;BME280;51033;42.648;23.292;2023-12-28T03:44:01;94920.38;;;4.33;52.42
30935;BME280;51033;42.648;23.292;2023-12-28T03:46:26;94893.72;;;4.07;53.16
30935;BME280;51033;42.648;23.292;2023-12-28T03:48:52;94916.75;;;3.95;53.39
30935;BME280;51033;42.648;23.292;2023-12-28T03:51:18;94916.75;;;3.95;53.33
30935;BME280;51033;42.648;23.292;2023-12-28T03:53:44;94922.13;;;4.05;53.04
30935;BME280;51033;42.648;23.292;2023-12-28T03:56:21;94929.34;;;4.15;52.41
30935;BME280;51033;42.648;23.292;2023-12-28T03:58:47;94921.50;;;3.98;52.79
30935;BME280;51033;42.648;23.292;2023-12-28T04:01:12;94924.88;;;3.72;53.87
30935;BME280;51033;42.648;23.292;2023-12-28T04:03:38;94927.75;;;3.54;54.61
30935;BME280;51033;42.648;23.292;2023-12-28T04:06:03;94922.34;;;3.60;54.91
30935;BME280;51033;42.648;23.292;2023-12-28T04:08:29;94922.78;;;3.74;54.78
30935;BME280;51033;42.648;23.292;2023-12-28T04:10:55;94940.00;;;3.81;54.66
30935;BME280;51033;42.648;23.292;2023-12-28T04:13:20;94918.94;;;3.81;54.13
30935;BME280;51033;42.648;23.292;2023-12-28T04:15:46;94920.00;;;3.64;54.17
30935;BME280;51033;42.648;23.292;2023-12-28T04:18:11;94922.09;;;3.62;53.98
30935;BME280;51033;42.648;23.292;2023-12-28T04:20:37;94932.75;;;3.72;53.96
30935;BME280;51033;42.648;23.292;2023-12-28T04:23:02;94916.44;;;3.53;53.96
30935;BME280;51033;42.648;23.292;2023-12-28T04:25:28;94938.13;;;3.60;54.13
30935;BME280;51033;42.648;23.292;2023-12-28T04:27:53;94939.06;;;3.71;53.80
30935;BME280;51033;42.648;23.292;2023-12-28T04:30:18;94899.53;;;3.49;53.80
30935;BME280;51033;42.648;23.292;2023-12-28T04:32:44;94925.34;;;3.69;53.85
30935;BME280;51033;42.648;23.292;2023-12-28T04:35:09;94825.03;;;3.05;53.57
30935;BME280;51033;42.648;23.292;2023-12-28T04:37:36;94933.78;;;3.71;53.32
30935;BME280;51033;42.648;23.292;2023-12-28T04:40:02;94917.06;;;3.60;53.50
30935;BME280;51033;42.648;23.292;2023-12-28T04:42:28;94930.13;;;3.72;53.66
30935;BME280;51033;42.648;23.292;2023-12-28T04:44:54;94913.94;;;3.63;53.58
30935;BME280;51033;42.648;23.292;2023-12-28T04:47:19;94926.78;;;3.76;53.50
30935;BME280;51033;42.648;23.292;2023-12-28T04:49:44;94906.09;;;3.47;54.17
30935;BME280;51033;42.648;23.292;2023-12-28T04:52:11;94924.88;;;3.55;54.55
30935;BME280;51033;42.648;23.292;2023-12-28T04:54:40;94916.56;;;3.63;54.20
30935;BME280;51033;42.648;23.292;2023-12-28T04:57:10;94913.78;;;3.70;54.00
30935;BME280;51033;42.648;23.292;2023-12-28T04:59:44;94909.53;;;3.69;54.08
30935;BME280;51033;42.648;23.292;2023-12-28T05:02:10;94924.22;;;3.65;54.16
30935;BME280;51033;42.648;23.292;2023-12-28T05:04:38;94915.38;;;3.71;54.33
30935;BME280;51033;42.648;23.292;2023-12-28T05:07:04;94921.25;;;3.78;54.01
30935;BME280;51033;42.648;23.292;2023-12-28T05:09:29;94894.06;;;3.72;53.70
30935;BME280;51033;42.648;23.292;2023-12-28T05:11:55;94881.63;;;3.68;53.39
30935;BME280;51033;42.648;23.292;2023-12-28T05:14:20;94925.91;;;3.93;53.18
30935;BME280;51033;42.648;23.292;2023-12-28T05:16:46;94908.59;;;3.75;53.37
30935;BME280;51033;42.648;23.292;2023-12-28T05:19:11;94906.75;;;3.75;53.42
30935;BME280;51033;42.648;23.292;2023-12-28T05:21:36;94917.06;;;3.82;53.38
30935;BME280;51033;42.648;23.292;2023-12-28T05:24:02;94927.44;;;3.89;53.03
30935;BME280;51033;42.648;23.292;2023-12-28T05:26:27;94905.47;;;3.78;52.94
30935;BME280;51033;42.648;23.292;2023-12-28T05:28:53;94906.97;;;3.74;52.92
30935;BME280;51033;42.648;23.292;2023-12-28T05:31:18;94919.13;;;3.75;52.76
30935;BME280;51033;42.648;23.292;2023-12-28T05:33:44;94930.00;;;3.83;52.65
30935;BME280;51033;42.648;23.292;2023-12-28T05:36:09;94918.63;;;3.78;52.95
30935;BME280;51033;42.648;23.292;2023-12-28T05:38:34;94931.84;;;3.83;52.86
30935;BME280;51033;42.648;23.292;2023-12-28T05:41:00;94939.25;;;3.86;52.54
30935;BME280;51033;42.648;23.292;2023-12-28T05:43:26;94932.41;;;3.85;52.83
30935;BME280;51033;42.648;23.292;2023-12-28T05:45:51;94929.13;;;3.78;52.89
30935;BME280;51033;42.648;23.292;2023-12-28T05:48:16;94939.19;;;3.81;53.12
30935;BME280;51033;42.648;23.292;2023-12-28T05:50:42;94923.59;;;3.58;53.30
30935;BME280;51033;42.648;23.292;2023-12-28T05:53:07;94946.69;;;3.72;53.25
30935;BME280;51033;42.648;23.292;2023-12-28T05:55:39;94934.19;;;3.63;53.31
30935;BME280;51033;42.648;23.292;2023-12-28T05:58:04;94944.31;;;3.71;53.20
30935;BME280;51033;42.648;23.292;2023-12-28T06:00:29;94909.03;;;3.33;53.50
30935;BME280;51033;42.648;23.292;2023-12-28T06:02:55;94939.88;;;3.55;53.28
30935;BME280;51033;42.648;23.292;2023-12-28T06:05:20;94948.16;;;3.63;53.40
30935;BME280;51033;42.648;23.292;2023-12-28T06:07:49;94961.56;;;3.62;53.29
30935;BME280;51033;42.648;23.292;2023-12-28T06:10:14;94939.72;;;3.45;53.46
30935;BME280;51033;42.648;23.292;2023-12-28T06:12:40;94958.72;;;3.47;53.65
30935;BME280;51033;42.648;23.292;2023-12-28T06:15:06;94955.44;;;3.56;53.64
30935;BME280;51033;42.648;23.292;2023-12-28T06:17:31;94937.66;;;3.47;53.46
30935;BME280;51033;42.648;23.292;2023-12-28T06:19:56;94953.97;;;3.49;53.56
30935;BME280;51033;42.648;23.292;2023-12-28T06:22:22;94964.44;;;3.44;53.89
30935;BME280;51033;42.648;23.292;2023-12-28T06:24:50;94964.03;;;3.52;53.62
30935;BME280;51033;42.648;23.292;2023-12-28T06:27:16;94953.75;;;3.33;54.01
30935;BME280;51033;42.648;23.292;2023-12-28T06:29:44;94962.22;;;3.35;54.38
30935;BME280;51033;42.648;23.292;2023-12-28T06:32:10;94959.00;;;3.33;54.45
30935;BME280;51033;42.648;23.292;2023-12-28T06:34:35;94964.44;;;3.44;54.40
30935;BME280;51033;42.648;23.292;2023-12-28T06:51:34;94961.44;;;4.12;53.07
30935;BME280;51033;42.648;23.292;2023-12-28T06:53:59;94964.78;;;4.07;53.38
30935;BME280;51033;42.648;23.292;2023-12-28T06:56:25;94970.84;;;4.08;53.93
30935;BME280;51033;42.648;23.292;2023-12-28T06:58:51;94933.44;;;3.84;53.82
30935;BME280;51033;42.648;23.292;2023-12-28T07:01:16;94972.69;;;4.07;54.25
30935;BME280;51033;42.648;23.292;2023-12-28T07:03:42;94953.31;;;3.97;54.31
30935;BME280;51033;42.648;23.292;2023-12-28T07:06:07;94968.78;;;4.10;54.27
30935;BME280;51033;42.648;23.292;2023-12-28T07:08:33;94963.03;;;4.13;54.07
30935;BME280;51033;42.648;23.292;2023-12-28T07:10:59;94972.75;;;4.12;54.46
30935;BME280;51033;42.648;23.292;2023-12-28T07:13:25;94983.56;;;3.39;58.13
30935;BME280;51033;42.648;23.292;2023-12-28T07:15:51;94983.28;;;3.74;56.85
30935;BME280;51033;42.648;23.292;2023-12-28T07:18:16;94981.75;;;3.95;56.68
30935;BME280;51033;42.648;23.292;2023-12-28T07:20:42;94970.28;;;3.67;57.40
30935;BME280;51033;42.648;23.292;2023-12-28T07:23:07;94976.66;;;3.88;57.33
30935;BME280;51033;42.648;23.292;2023-12-28T07:25:34;94975.50;;;3.46;58.87
30935;BME280;51033;42.648;23.292;2023-12-28T07:27:59;94969.25;;;3.85;57.78
30935;BME280;51033;42.648;23.292;2023-12-28T07:30:25;94968.75;;;3.88;57.43
30935;BME280;51033;42.648;23.292;2023-12-28T07:32:50;94979.97;;;4.00;57.25
30935;BME280;51033;42.648;23.292;2023-12-28T07:35:17;94974.84;;;4.10;57.36
30935;BME280;51033;42.648;23.292;2023-12-28T07:37:43;94964.84;;;4.12;56.77
30935;BME280;51033;42.648;23.292;2023-12-28T07:40:12;94985.09;;;4.50;56.19
30935;BME280;51033;42.648;23.292;2023-12-28T07:42:37;94959.06;;;4.32;56.29
30935;BME280;51033;42.648;23.292;2023-12-28T07:45:03;94971.56;;;4.42;56.34
30935;BME280;51033;42.648;23.292;2023-12-28T07:47:29;94977.75;;;4.52;56.10
30935;BME280;51033;42.648;23.292;2023-12-28T07:49:54;94977.13;;;4.67;55.82
30935;BME280;51033;42.648;23.292;2023-12-28T07:52:19;94972.19;;;4.76;55.28
30935;BME280;51033;42.648;23.292;2023-12-28T07:54:45;94956.97;;;4.56;55.62
30935;BME280;51033;42.648;23.292;2023-12-28T07:57:10;94986.72;;;4.78;55.65
30935;BME280;51033;42.648;23.292;2023-12-28T07:59:35;94960.28;;;4.24;56.21
30935;BME280;51033;42.648;23.292;2023-12-28T08:02:01;94975.41;;;4.56;56.31
30935;BME280;51033;42.648;23.292;2023-12-28T08:04:27;94973.59;;;4.35;56.43
30935;BME280;51033;42.648;23.292;2023-12-28T08:06:52;94996.19;;;4.74;56.28
30935;BME280;51033;42.648;23.292;2023-12-28T08:09:17;94976.75;;;4.58;56.32
30935;BME280;51033;42.648;23.292;2023-12-28T08:11:43;94985.34;;;4.97;55.73
30935;BME280;51033;42.648;23.292;2023-12-28T08:14:08;94936.59;;;4.73;55.72
30935;BME280;51033;42.648;23.292;2023-12-28T08:16:33;94946.91;;;5.06;55.17
30935;BME280;51033;42.648;23.292;2023-12-28T08:19:00;94977.34;;;4.65;56.21
30935;BME280;51033;42.648;23.292;2023-12-28T08:21:25;94950.91;;;4.55;56.53
30935;BME280;51033;42.648;23.292;2023-12-28T08:23:51;94975.31;;;4.99;56.33
30935;BME280;51033;42.648;23.292;2023-12-28T08:26:17;94966.56;;;5.21;55.45
30935;BME280;51033;42.648;23.292;2023-12-28T08:28:42;94969.56;;;5.34;54.93
30935;BME280;51033;42.648;23.292;2023-12-28T08:31:08;94949.56;;;5.06;54.53
30935;BME280;51033;42.648;23.292;2023-12-28T08:33:35;94970.19;;;5.46;54.36
30935;BME280;51033;42.648;23.292;2023-12-28T08:36:03;94948.53;;;5.44;53.89
30935;BME280;51033;42.648;23.292;2023-12-28T08:38:29;94956.75;;;5.48;54.33
30935;BME280;51033;42.648;23.292;2023-12-28T08:40:54;94968.59;;;5.87;53.88
30935;BME280;51033;42.648;23.292;2023-12-28T08:43:19;94950.84;;;5.36;54.71
30935;BME280;51033;42.648;23.292;2023-12-28T08:45:45;94970.91;;;5.37;55.41
30935;BME280;51033;42.648;23.292;2023-12-28T08:48:10;94960.97;;;5.49;55.05
30935;BME280;51033;42.648;23.292;2023-12-28T08:50:36;94951.28;;;5.23;55.77
30935;BME280;51033;42.648;23.292;2023-12-28T08:53:01;94932.22;;;5.47;54.75
30935;BME280;51033;42.648;23.292;2023-12-28T08:55:27;94946.59;;;5.67;54.49
30935;BME280;51033;42.648;23.292;2023-12-28T08:57:53;94931.63;;;5.77;54.02
30935;BME280;51033;42.648;23.292;2023-12-28T09:00:18;94933.88;;;5.22;55.74
30935;BME280;51033;42.648;23.292;2023-12-28T09:02:44;94942.59;;;5.64;55.27
30935;BME280;51033;42.648;23.292;2023-12-28T09:05:09;94915.25;;;5.80;54.03
30935;BME280;51033;42.648;23.292;2023-12-28T09:07:35;94929.94;;;6.13;53.26
30935;BME280;51033;42.648;23.292;2023-12-28T09:10:04;94931.25;;;6.11;53.41
30935;BME280;51033;42.648;23.292;2023-12-28T09:12:30;94931.09;;;6.32;53.14
30935;BME280;51033;42.648;23.292;2023-12-28T09:14:55;94927.34;;;5.34;55.18
30935;BME280;51033;42.648;23.292;2023-12-28T09:17:23;94927.78;;;5.21;55.92
30935;BME280;51033;42.648;23.292;2023-12-28T09:19:49;94898.03;;;5.26;55.91
30935;BME280;51033;42.648;23.292;2023-12-28T09:22:15;94921.66;;;5.94;54.76
30935;BME280;51033;42.648;23.292;2023-12-28T09:24:40;94924.19;;;6.16;53.91
30935;BME280;51033;42.648;23.292;2023-12-28T09:27:05;94894.88;;;5.71;54.67
30935;BME280;51033;42.648;23.292;2023-12-28T09:29:31;94908.91;;;5.76;55.04
30935;BME280;51033;42.648;23.292;2023-12-28T09:31:56;94886.81;;;5.97;54.07
30935;BME280;51033;42.648;23.292;2023-12-28T09:34:21;94886.00;;;5.92;53.84
30935;BME280;51033;42.648;23.292;2023-12-28T09:36:47;94862.44;;;5.75;54.34
30935;BME280;51033;42.648;23.292;2023-12-28T09:39:12;94889.56;;;6.18;53.50
30935;BME280;51033;42.648;23.292;2023-12-28T09:41:40;94894.88;;;6.28;53.88
30935;BME280;51033;42.648;23.292;2023-12-28T09:44:12;94892.03;;;6.39;53.33
30935;BME280;51033;42.648;23.292;2023-12-28T09:46:41;94877.78;;;6.61;52.91
30935;BME280;51033;42.648;23.292;2023-12-28T09:49:06;94876.22;;;6.60;52.56
30935;BME280;51033;42.648;23.292;2023-12-28T09:51:32;94866.41;;;6.70;52.88
30935;BME280;51033;42.648;23.292;2023-12-28T09:53:57;94856.91;;;7.05;52.54
30935;BME280;51033;42.648;23.292;2023-12-28T09:56:23;94835.22;;;7.23;51.04
30935;BME280;51033;42.648;23.292;2023-12-28T09:58:50;94850.00;;;7.34;50.84
30935;BME280;51033;42.648;23.292;2023-12-28T10:01:17;94863.75;;;7.51;51.07
30935;BME280;51033;42.648;23.292;2023-12-28T10:03:42;94852.34;;;7.66;50.60
30935;BME280;51033;42.648;23.292;2023-12-28T10:06:07;94843.13;;;7.43;51.15
30935;BME280;51033;42.648;23.292;2023-12-28T10:08:33;94827.81;;;7.20;51.51
30935;BME280;51033;42.648;23.292;2023-12-28T10:10:59;94828.84;;;7.34;51.74
30935;BME280;51033;42.648;23.292;2023-12-28T10:13:26;94812.13;;;7.54;51.26
30935;BME280;51033;42.648;23.292;2023-12-28T10:15:52;94812.34;;;7.78;50.29
30935;BME280;51033;42.648;23.292;2023-12-28T10:18:18;94810.06;;;7.25;51.14
30935;BME280;51033;42.648;23.292;2023-12-28T10:20:54;94821.44;;;7.31;51.25
30935;BME280;51033;42.648;23.292;2023-12-28T10:23:19;94812.22;;;6.63;52.98
30935;BME280;51033;42.648;23.292;2023-12-28T10:25:46;94821.47;;;7.11;52.01
30935;BME280;51033;42.648;23.292;2023-12-28T10:28:13;94799.25;;;7.22;51.48
30935;BME280;51033;42.648;23.292;2023-12-28T10:30:39;94817.22;;;7.20;51.55
30935;BME280;51033;42.648;23.292;2023-12-28T10:33:07;94802.47;;;6.73;52.49
30935;BME280;51033;42.648;23.292;2023-12-28T10:35:33;94779.69;;;7.03;52.38
30935;BME280;51033;42.648;23.292;2023-12-28T10:38:00;94778.91;;;6.87;51.79
30935;BME280;51033;42.648;23.292;2023-12-28T10:40:26;94771.78;;;6.88;52.21
30935;BME280;51033;42.648;23.292;2023-12-28T10:42:55;94779.16;;;6.96;52.07
30935;BME280;51033;42.648;23.292;2023-12-28T10:45:25;94763.03;;;7.02;51.71
30935;BME280;51033;42.648;23.292;2023-12-28T10:48:10;94769.81;;;7.39;51.23
30935;BME280;51033;42.648;23.292;2023-12-28T10:50:49;94751.97;;;7.69;50.28
30935;BME280;51033;42.648;23.292;2023-12-28T10:53:38;94747.38;;;7.21;50.65
30935;BME280;51033;42.648;23.292;2023-12-28T11:01:37;94740.47;;;7.30;51.15
30935;BME280;51033;42.648;23.292;2023-12-28T11:04:17;94749.31;;;7.75;50.57
30935;BME280;51033;42.648;23.292;2023-12-28T11:06:49;94729.06;;;7.99;50.04
30935;BME280;51033;42.648;23.292;2023-12-28T11:09:15;94743.19;;;8.28;48.93
30935;BME280;51033;42.648;23.292;2023-12-28T11:11:43;94714.59;;;8.25;48.75
30935;BME280;51033;42.648;23.292;2023-12-28T11:14:09;94725.09;;;8.40;48.59
30935;BME280;51033;42.648;23.292;2023-12-28T11:16:37;94731.31;;;7.71;50.37
30935;BME280;51033;42.648;23.292;2023-12-28T11:19:03;94714.19;;;8.03;50.11
30935;BME280;51033;42.648;23.292;2023-12-28T11:21:29;94707.19;;;8.22;49.28
30935;BME280;51033;42.648;23.292;2023-12-28T11:23:55;94718.00;;;8.31;49.62
30935;BME280;51033;42.648;23.292;2023-12-28T11:26:22;94705.41;;;8.12;49.64
30935;BME280;51033;42.648;23.292;2023-12-28T11:28:48;94702.66;;;8.56;48.80
30935;BME280;51033;42.648;23.292;2023-12-28T11:31:14;94678.94;;;8.41;49.25
30935;BME280;51033;42.648;23.292;2023-12-28T11:33:50;94699.69;;;8.34;49.00
30935;BME280;51033;42.648;23.292;2023-12-28T11:36:25;94695.41;;;8.38;49.50
30935;BME280;51033;42.648;23.292;2023-12-28T11:38:56;94694.47;;;8.24;49.83
30935;BME280;51033;42.648;23.292;2023-12-28T11:41:30;94682.25;;;8.57;49.57
30935;BME280;51033;42.648;23.292;2023-12-28T11:43:56;94679.41;;;8.77;49.11
30935;BME280;51033;42.648;23.292;2023-12-28T11:46:21;94684.66;;;8.82;48.62
30935;BME280;51033;42.648;23.292;2023-12-28T11:48:47;94684.34;;;8.89;48.90
30935;BME280;51033;42.648;23.292;2023-12-28T11:51:12;94664.47;;;8.57;48.85
30935;BME280;51033;42.648;23.292;2023-12-28T11:53:41;94680.03;;;8.69;49.10
30935;BME280;51033;42.648;23.292;2023-12-28T11:56:08;94669.97;;;8.37;49.39
30935;BME280;51033;42.648;23.292;2023-12-28T11:58:35;94667.13;;;8.29;49.28
30935;BME280;51033;42.648;23.292;2023-12-28T12:01:02;94672.06;;;8.40;48.76
30935;BME280;51033;42.648;23.292;2023-12-28T12:03:28;94673.91;;;8.11;49.45
30935;BME280;51033;42.648;23.292;2023-12-28T12:05:57;94662.38;;;7.92;50.07
30935;BME280;51033;42.648;23.292;2023-12-28T12:08:23;94678.03;;;8.22;49.55
30935;BME280;51033;42.648;23.292;2023-12-28T12:10:59;94667.69;;;8.54;48.98
30935;BME280;51033;42.648;23.292;2023-12-28T12:13:24;94666.25;;;8.38;48.44
30935;BME280;51033;42.648;23.292;2023-12-28T12:15:51;94653.28;;;8.66;48.26
30935;BME280;51033;42.648;23.292;2023-12-28T12:18:16;94650.22;;;8.53;48.38
30935;BME280;51033;42.648;23.292;2023-12-28T12:20:42;94652.69;;;8.45;48.58
30935;BME280;51033;42.648;23.292;2023-12-28T12:23:07;94647.25;;;8.60;48.09
30935;BME280;51033;42.648;23.292;2023-12-28T12:25:33;94655.91;;;8.37;48.37
30935;BME280;51033;42.648;23.292;2023-12-28T12:27:58;94640.56;;;8.63;48.33
30935;BME280;51033;42.648;23.292;2023-12-28T12:30:24;94656.13;;;8.74;48.41
30935;BME280;51033;42.648;23.292;2023-12-28T12:32:49;94662.56;;;8.92;47.89
30935;BME280;51033;42.648;23.292;2023-12-28T12:35:15;94664.97;;;9.17;47.58
30935;BME280;51033;42.648;23.292;2023-12-28T12:37:40;94653.78;;;9.20;47.94
30935;BME280;51033;42.648;23.292;2023-12-28T12:40:06;94666.69;;;9.03;48.31
30935;BME280;51033;42.648;23.292;2023-12-28T12:42:33;94649.63;;;9.14;48.24
30935;BME280;51033;42.648;23.292;2023-12-28T12:44:58;94650.53;;;9.66;48.09
30935;BME280;51033;42.648;23.292;2023-12-28T12:47:24;94656.22;;;9.78;46.58
30935;BME280;51033;42.648;23.292;2023-12-28T12:49:52;94614.81;;;9.77;46.82
30935;BME280;51033;42.648;23.292;2023-12-28T12:52:19;94656.47;;;10.14;45.95
30935;BME280;51033;42.648;23.292;2023-12-28T12:54:53;94651.22;;;10.27;45.70
30935;BME280;51033;42.648;23.292;2023-12-28T12:57:18;94631.69;;;10.18;46.62
30935;BME280;51033;42.648;23.292;2023-12-28T12:59:44;94643.53;;;10.45;46.06
30935;BME280;51033;42.648;23.292;2023-12-28T13:02:10;94645.03;;;10.51;45.63
30935;BME280;51033;42.648;23.292;2023-12-28T13:04:38;94636.97;;;10.56;45.20
30935;BME280;51033;42.648;23.292;2023-12-28T13:07:03;94640.50;;;10.51;44.80
30935;BME280;51033;42.648;23.292;2023-12-28T13:09:29;94638.91;;;10.50;44.77
30935;BME280;51033;42.648;23.292;2023-12-28T13:11:55;94642.03;;;10.39;44.81
30935;BME280;51033;42.648;23.292;2023-12-28T13:14:20;94634.09;;;10.33;44.81
30935;BME280;51033;42.648;23.292;2023-12-28T13:16:46;94633.88;;;10.16;44.73
30935;BME280;51033;42.648;23.292;2023-12-28T13:19:13;94612.41;;;9.94;45.05